Aikoumaru No.8 — JD3288 — position and weather

sailwx.info

Track history (hours):
 
Tides and Currents Weather Stations Pressure Air Temp Water Temp Dewpoint Dewpoint Depression Visibility Wind Speed Wind Dir Waves Ship Positions

Aikoumaru No.8

Last reported at 2016-May-05 10:33 UTC. Time now 2016-May-05 18:04 UTC.
Position N 34°05' E 135°03'.

Length 74 m; draft 4.8 m.

Type: Cargo ship. MMSI: 431003153.

Date/timePositionNaut miles runAvg speedWind from/ knotsBaromVisibWave heightAir tempDewpointWater temp
2016-May-05 10:33N 34°05' E 135°03'1410.6
2016-May-05 09:13N 34°20' E 135°05'710.8
2016-May-05 08:33N 34°25' E 135°09'1211.3
2016-May-05 07:29N 34°34' E 135°20'6 6.2
2016-May-05 06:33N 34°34' E 135°27'0 0.0
2016-May-05 04:28N 34°34' E 135°27'0 0.0
2016-May-05 03:16N 34°34' E 135°27'0 0.0
2016-May-05 00:04N 34°34' E 135°27'0 0.0
2016-May-04 23:28N 34°34' E 135°27'0 0.0
2016-May-04 22:28N 34°34' E 135°27'0 0.0
2016-May-04 20:22N 34°34' E 135°27'0 0.0
2016-May-04 19:22N 34°34' E 135°27'0 0.0
2016-May-04 18:28N 34°34' E 135°27'0 0.1
2016-May-04 12:22N 34°34' E 135°27'0 0.2
2016-May-04 09:28N 34°35' E 135°27'0 0.0
2016-May-04 08:25N 34°35' E 135°27'1 0.1
2016-May-03 22:31N 34°35' E 135°28'0 0.0
2016-May-03 20:25N 34°35' E 135°28'0 0.0
2016-May-03 19:19N 34°35' E 135°28'0 0.0
2016-May-03 18:25N 34°35' E 135°28'0 0.0
2016-May-02 08:33N 34°35' E 135°27'1010.3
2016-May-02 07:33N 34°31' E 135°16'1313.5
2016-May-02 06:33N 34°21' E 135°06'1313.3
2016-May-02 05:33N 34°08' E 135°02'227 9.7
2016-May-01 06:11N 35°02' E 139°30'1710.5
2016-May-01 04:33N 35°13' E 139°46'1211.9
2016-May-01 03:33N 35°24' E 139°39'1 0.6
2016-May-01 02:32N 35°23' E 139°38'0 0.0
2016-May-01 01:32N 35°23' E 139°38'1 0.9
2016-May-01 00:31N 35°24' E 139°39'0 0.1
2016-Apr-30 23:33N 35°24' E 139°39'0 0.0
2016-Apr-30 22:30N 35°24' E 139°39'0 0.0
2016-Apr-30 21:31N 35°24' E 139°39'0 0.0
2016-Apr-30 20:33N 35°24' E 139°39'0 0.0
2016-Apr-30 19:33N 35°24' E 139°39'0 0.0
2016-Apr-30 18:33N 35°24' E 139°39'0 0.0
2016-Apr-30 17:31N 35°24' E 139°39'0 0.0
2016-Apr-30 16:33N 35°24' E 139°39'0 0.0
2016-Apr-30 15:30N 35°24' E 139°39'1 0.7
2016-Apr-30 14:33N 35°23' E 139°40'1211.7
2016-Apr-30 13:33N 35°13' E 139°47'244 6.6
2016-Apr-29 00:31N 34°04' E 135°03'1212.2
2016-Apr-28 23:33N 34°16' E 135°03'1312.4
2016-Apr-28 22:32N 34°27' E 135°11'1212.0
2016-Apr-28 21:30N 34°36' E 135°22'4 4.6
2016-Apr-28 20:32N 34°35' E 135°27'0 0.0
2016-Apr-28 19:32N 34°35' E 135°27'0 0.0
2016-Apr-28 18:08N 34°35' E 135°27'0 0.0
2016-Apr-28 16:32N 34°35' E 135°27'0 0.0
2016-Apr-28 15:26N 34°35' E 135°27'0 0.0
2016-Apr-28 14:26N 34°35' E 135°27'0 0.0
2016-Apr-28 09:26N 34°35' E 135°27'1 0.0
2016-Apr-27 12:33N 34°34' E 135°27'0 0.4
2016-Apr-27 11:33N 34°34' E 135°27'0 0.0
2016-Apr-27 09:27N 34°34' E 135°27'0 0.0
2016-Apr-27 08:27N 34°34' E 135°27'1 0.1
2016-Apr-26 20:27N 34°35' E 135°28'0 0.0
2016-Apr-26 19:09N 34°35' E 135°28'0 0.0
2016-Apr-26 18:33N 34°35' E 135°28'0 0.0
2016-Apr-26 15:15N 34°35' E 135°28'0 0.0
2016-Apr-26 14:27N 34°35' E 135°28'0 0.0
2016-Apr-26 11:30N 34°35' E 135°28'6 6.6
2016-Apr-26 10:32N 34°34' E 135°20'1312.9
2016-Apr-26 09:32N 34°25' E 135°09'1312.7
2016-Apr-26 08:32N 34°13' E 135°03'  
Track history (hours):
 
Tides and Currents Weather Stations Pressure Air Temp Water Temp Dewpoint Dewpoint Depression Visibility Wind Speed Wind Dir Waves Ship Positions

Aikoumaru No.8

Last reported at 2016-May-05 10:33 UTC. Time now 2016-May-05 18:04 UTC.
Position N 34°05' E 135°03'.

Length 74 m; draft 4.8 m.

Type: Cargo ship. MMSI: 431003153.

Date/timePositionNaut miles runAvg speedWind from/ knotsBaromVisibWave heightAir tempDewpointWater temp
2016-May-05 10:33N 34°05' E 135°03'1410.6
2016-May-05 09:13N 34°20' E 135°05'710.8
2016-May-05 08:33N 34°25' E 135°09'1211.3
2016-May-05 07:29N 34°34' E 135°20'6 6.2
2016-May-05 06:33N 34°34' E 135°27'0 0.0
2016-May-05 04:28N 34°34' E 135°27'0 0.0
2016-May-05 03:16N 34°34' E 135°27'0 0.0
2016-May-05 00:04N 34°34' E 135°27'0 0.0
2016-May-04 23:28N 34°34' E 135°27'0 0.0
2016-May-04 22:28N 34°34' E 135°27'0 0.0
2016-May-04 20:22N 34°34' E 135°27'0 0.0
2016-May-04 19:22N 34°34' E 135°27'0 0.0
2016-May-04 18:28N 34°34' E 135°27'0 0.1
2016-May-04 12:22N 34°34' E 135°27'0 0.2
2016-May-04 09:28N 34°35' E 135°27'0 0.0
2016-May-04 08:25N 34°35' E 135°27'1 0.1
2016-May-03 22:31N 34°35' E 135°28'0 0.0
2016-May-03 20:25N 34°35' E 135°28'0 0.0
2016-May-03 19:19N 34°35' E 135°28'0 0.0
2016-May-03 18:25N 34°35' E 135°28'0 0.0
2016-May-02 08:33N 34°35' E 135°27'1010.3
2016-May-02 07:33N 34°31' E 135°16'1313.5
2016-May-02 06:33N 34°21' E 135°06'1313.3
2016-May-02 05:33N 34°08' E 135°02'227 9.7
2016-May-01 06:11N 35°02' E 139°30'1710.5
2016-May-01 04:33N 35°13' E 139°46'1211.9
2016-May-01 03:33N 35°24' E 139°39'1 0.6
2016-May-01 02:32N 35°23' E 139°38'0 0.0
2016-May-01 01:32N 35°23' E 139°38'1 0.9
2016-May-01 00:31N 35°24' E 139°39'0 0.1
2016-Apr-30 23:33N 35°24' E 139°39'0 0.0
2016-Apr-30 22:30N 35°24' E 139°39'0 0.0
2016-Apr-30 21:31N 35°24' E 139°39'0 0.0
2016-Apr-30 20:33N 35°24' E 139°39'0 0.0
2016-Apr-30 19:33N 35°24' E 139°39'0 0.0
2016-Apr-30 18:33N 35°24' E 139°39'0 0.0
2016-Apr-30 17:31N 35°24' E 139°39'0 0.0
2016-Apr-30 16:33N 35°24' E 139°39'0 0.0
2016-Apr-30 15:30N 35°24' E 139°39'1 0.7
2016-Apr-30 14:33N 35°23' E 139°40'1211.7
2016-Apr-30 13:33N 35°13' E 139°47'244 6.6
2016-Apr-29 00:31N 34°04' E 135°03'1212.2
2016-Apr-28 23:33N 34°16' E 135°03'1312.4
2016-Apr-28 22:32N 34°27' E 135°11'1212.0
2016-Apr-28 21:30N 34°36' E 135°22'4 4.6
2016-Apr-28 20:32N 34°35' E 135°27'0 0.0
2016-Apr-28 19:32N 34°35' E 135°27'0 0.0
2016-Apr-28 18:08N 34°35' E 135°27'0 0.0
2016-Apr-28 16:32N 34°35' E 135°27'0 0.0
2016-Apr-28 15:26N 34°35' E 135°27'0 0.0
2016-Apr-28 14:26N 34°35' E 135°27'0 0.0
2016-Apr-28 09:26N 34°35' E 135°27'1 0.0
2016-Apr-27 12:33N 34°34' E 135°27'0 0.4
2016-Apr-27 11:33N 34°34' E 135°27'0 0.0
2016-Apr-27 09:27N 34°34' E 135°27'0 0.0
2016-Apr-27 08:27N 34°34' E 135°27'1 0.1
2016-Apr-26 20:27N 34°35' E 135°28'0 0.0
2016-Apr-26 19:09N 34°35' E 135°28'0 0.0
2016-Apr-26 18:33N 34°35' E 135°28'0 0.0
2016-Apr-26 15:15N 34°35' E 135°28'0 0.0
2016-Apr-26 14:27N 34°35' E 135°28'0 0.0
2016-Apr-26 11:30N 34°35' E 135°28'6 6.6
2016-Apr-26 10:32N 34°34' E 135°20'1312.9
2016-Apr-26 09:32N 34°25' E 135°09'1312.7
2016-Apr-26 08:32N 34°13' E 135°03'  

Dump ship's entire track history